Time;durP1;ratioP1;P1;durP2;ratioP2;P2;SDS_P1;SDS_P2;PMS_P1;PMS_P2;Temp;Humidity;BMP_temperature;BMP_pressure;BME280_temperature;BME280_humidity;BME280_pressure;Samples;Min_cycle;Max_cycle;Signal;HPM_P1;HPM_P2
2022/05/07 00:01:45;;;;;;;5.82;5.45;;;;;;;10.64;87.50;101770.22;6171741;23;20496;-74
2022/05/07 00:04:12;;;;;;;4.88;4.68;;;;;;;11.09;88.25;101839.56;6158873;23;20498;-71
2022/05/07 00:06:39;;;;;;;4.72;4.53;;;;;;;11.02;88.49;101838.91;6169207;23;20501;-73
2022/05/07 00:09:05;;;;;;;4.60;4.40;;;;;;;10.77;88.05;101792.50;6161583;23;20472;-74
2022/05/07 00:11:31;;;;;;;6.35;6.05;;;;;;;10.78;87.65;101804.75;6142448;23;20017;-71
2022/05/07 00:13:58;;;;;;;4.90;4.70;;;;;;;10.92;87.76;101827.00;6143759;23;20287;-73
2022/05/07 00:19:09;;;;;;;4.80;4.60;;;;;;;10.73;87.01;101819.78;6173079;23;20005;-74
2022/05/07 00:21:36;;;;;;;4.53;4.32;;;;;;;10.56;86.81;101801.13;6163409;23;20500;-72
2022/05/07 00:24:02;;;;;;;4.82;4.63;;;;;;;10.21;87.76;101749.84;6156531;23;20009;-73
2022/05/07 00:26:29;;;;;;;5.25;5.00;;;;;;;10.65;87.70;101828.84;6148430;23;20033;-73
2022/05/07 00:28:55;;;;;;;4.88;4.68;;;;;;;10.30;87.93;101792.41;6152424;23;20030;-73
2022/05/07 00:31:22;;;;;;;5.22;4.88;;;;;;;10.49;88.84;101828.50;6139173;23;20013;-72
2022/05/07 00:33:48;;;;;;;5.00;4.80;;;;;;;9.26;90.30;101622.72;6182232;23;20047;-72
2022/05/07 00:36:14;;;;;;;4.93;4.72;;;;;;;10.51;91.19;101824.06;6163584;23;20009;-72
2022/05/07 00:38:42;;;;;;;6.43;5.90;;;;;;;9.23;91.17;101607.13;6140215;23;20029;-73
2022/05/07 00:41:08;;;;;;;4.90;4.60;;;;;;;10.37;91.71;101798.28;6176338;23;20116;-73
2022/05/07 00:43:40;;;;;;;6.70;6.25;;;;;;;10.55;91.85;101823.06;6165573;23;20001;-71
2022/05/07 00:46:06;;;;;;;5.23;4.97;;;;;;;10.40;92.76;101802.56;6169931;23;20378;-73
2022/05/07 00:48:33;;;;;;;6.53;6.22;;;;;;;10.49;92.73;101823.25;6158766;23;20009;-72
2022/05/07 00:53:47;;;;;;;6.55;6.25;;;;;;;9.92;93.47;101739.41;6170886;23;20008;-73
2022/05/07 00:56:13;;;;;;;4.90;4.70;;;;;;;10.43;93.63;101813.81;6141942;23;20409;-73
2022/05/07 00:58:40;;;;;;;6.07;5.78;;;;;;;10.41;93.95;101830.53;6164840;23;20046;-71
2022/05/07 01:01:06;;;;;;;4.65;4.45;;;;;;;10.34;93.96;101815.00;6160734;23;20024;-73
2022/05/07 01:03:33;;;;;;;6.18;5.88;;;;;;;10.31;93.69;101809.00;6138500;23;20084;-73
2022/05/07 01:05:59;;;;;;;4.78;4.55;;;;;;;9.64;94.03;101699.25;6169392;23;20054;-73
2022/05/07 01:08:28;;;;;;;4.50;4.30;;;;;;;9.15;94.15;101625.69;6142222;23;20041;-72
2022/05/07 01:10:59;;;;;;;4.45;4.25;;;;;;;10.25;93.76;101810.00;6170346;23;20193;-73
2022/05/07 01:13:26;;;;;;;4.80;4.57;;;;;;;10.20;93.43;101801.41;6161117;23;20531;-71
2022/05/07 01:15:57;;;;;;;4.50;4.30;;;;;;;10.15;92.92;101814.69;6140319;23;20383;-73
2022/05/07 01:18:23;;;;;;;4.50;4.30;;;;;;;10.08;92.68;101805.34;6168611;23;20174;-73
2022/05/07 01:20:50;;;;;;;4.60;4.40;;;;;;;10.05;92.31;101808.03;6155691;23;20025;-73
2022/05/07 01:23:16;;;;;;;4.38;4.18;;;;;;;9.84;92.54;101775.47;6162855;23;20280;-74
2022/05/07 01:25:43;;;;;;;6.05;5.75;;;;;;;9.97;93.31;101808.28;6128983;23;20056;-74
2022/05/07 01:28:09;;;;;;;5.25;4.95;;;;;;;9.96;93.16;101809.19;6178210;23;20023;-74
2022/05/07 01:30:36;;;;;;;6.40;6.03;;;;;;;9.91;93.53;101811.09;6133127;23;20009;-73
2022/05/07 01:33:02;;;;;;;4.53;4.32;;;;;;;9.73;94.70;101782.84;6156014;23;20029;-73
2022/05/07 01:35:29;;;;;;;5.25;4.90;;;;;;;9.91;95.74;101810.25;6139187;23;20084;-74
2022/05/07 01:37:55;;;;;;;4.57;4.38;;;;;;;9.69;95.25;101799.56;6159439;23;20095;-74
2022/05/07 01:40:21;;;;;;;4.78;4.57;;;;;;;9.78;96.08;101799.28;6141494;23;20013;-74
2022/05/07 01:42:48;;;;;;;4.75;4.55;;;;;;;9.73;95.67;101799.41;6154372;23;20032;-74
2022/05/07 01:45:14;;;;;;;4.50;4.30;;;;;;;9.23;96.04;101722.38;6132790;23;20020;-73
2022/05/07 01:50:26;;;;;;;4.25;4.00;;;;;;;9.15;96.61;101699.88;6158896;23;20080;-73
2022/05/07 01:52:53;;;;;;;4.70;4.50;;;;;;;8.50;95.82;101608.44;6156879;23;20095;-72
2022/05/07 01:55:19;;;;;;;5.22;4.90;;;;;;;9.67;95.85;101797.00;6151466;23;20505;-74
2022/05/07 01:57:45;;;;;;;6.15;5.85;;;;;;;8.52;96.85;101614.47;6168392;23;20276;-73
2022/05/07 02:00:13;;;;;;;4.60;4.40;;;;;;;9.63;97.27;101789.28;6140636;23;20240;-72
2022/05/07 02:02:39;;;;;;;6.45;6.15;;;;;;;9.59;96.02;101796.38;6171967;23;20027;-73
2022/05/07 02:05:06;;;;;;;4.65;4.45;;;;;;;9.16;96.73;101734.75;6167355;23;20127;-73
2022/05/07 02:07:32;;;;;;;5.20;5.00;;;;;;;9.24;96.78;101751.13;6160668;23;20091;-72
2022/05/07 02:09:59;;;;;;;5.10;4.80;;;;;;;9.23;96.64;101748.56;6162923;23;20013;-72
2022/05/07 02:12:26;;;;;;;5.57;5.18;;;;;;;9.42;97.99;101802.13;6148254;23;20017;-72
2022/05/07 02:14:53;;;;;;;4.68;4.47;;;;;;;9.49;98.70;101793.16;6141482;23;20016;-73
2022/05/07 02:17:19;;;;;;;4.63;4.32;;;;;;;9.44;100.00;101789.84;6142416;23;20095;-72
2022/05/07 02:19:45;;;;;;;5.45;5.25;;;;;;;9.45;100.00;101788.91;6145638;23;20377;-73
2022/05/07 02:22:12;;;;;;;5.75;5.35;;;;;;;8.95;100.00;101702.22;6121278;23;20393;-72
2022/05/07 02:24:38;;;;;;;6.65;6.35;;;;;;;9.47;100.00;101792.34;6160181;23;20044;-73
2022/05/07 02:27:05;;;;;;;5.18;4.97;;;;;;;9.48;100.00;101794.09;5969548;23;20009;-73
2022/05/07 02:29:31;;;;;;;5.93;5.63;;;;;;;9.40;100.00;101803.91;6154120;23;20089;-72
2022/05/07 02:32:03;;;;;;;4.65;4.45;;;;;;;9.36;100.00;101805.78;6160221;23;20165;-72
2022/05/07 02:34:31;;;;;;;5.47;5.22;;;;;;;8.94;100.00;101740.66;6162119;23;20513;-73
2022/05/07 02:36:58;;;;;;;4.22;4.03;;;;;;;9.25;100.00;101809.63;6152535;23;20008;-73
2022/05/07 02:39:25;;;;;;;4.50;4.20;;;;;;;9.24;100.00;101802.66;6149739;23;20028;-73
2022/05/07 02:44:37;;;;;;;6.30;6.00;;;;;;;9.03;100.00;101794.50;6128628;23;20019;-73
2022/05/07 02:47:04;;;;;;;4.43;4.22;;;;;;;9.10;100.00;101803.91;6154684;23;20048;-74
2022/05/07 02:49:32;;;;;;;4.78;4.57;;;;;;;8.11;100.00;101656.53;6150438;23;20037;-73
2022/05/07 02:51:58;;;;;;;4.53;4.22;;;;;;;9.05;100.00;101812.78;6159953;23;20042;-74
2022/05/07 02:54:25;;;;;;;5.13;4.85;;;;;;;8.85;100.00;101788.00;6157836;23;20525;-73
2022/05/07 02:56:52;;;;;;;4.13;3.92;;;;;;;9.05;100.00;101807.56;6159719;23;20948;-72
2022/05/07 02:59:18;;;;;;;4.57;4.38;;;;;;;7.96;100.00;101626.44;6170085;23;20021;-72
2022/05/07 03:01:44;;;;;;;6.15;5.85;;;;;;;8.75;100.00;101744.69;6152560;23;20313;-73
2022/05/07 03:04:11;;;;;;;4.60;4.40;;;;;;;9.09;100.00;101804.81;6150537;23;20193;-75
2022/05/07 03:06:37;;;;;;;5.80;5.53;;;;;;;9.13;100.00;101803.81;6132819;23;20013;-73
2022/05/07 03:09:05;;;;;;;4.28;4.07;;;;;;;8.67;100.00;101723.94;6140667;23;20276;-73
2022/05/07 03:11:33;;;;;;;5.43;5.22;;;;;;;9.13;100.00;101800.34;6094779;23;20017;-72
2022/05/07 03:14:00;;;;;;;4.57;4.38;;;;;;;9.13;100.00;101797.72;6142669;23;20017;-72
2022/05/07 03:16:27;;;;;;;4.13;3.92;;;;;;;9.14;100.00;101802.03;6154335;23;20103;-72
2022/05/07 03:18:54;;;;;;;4.30;4.10;;;;;;;9.16;100.00;101797.63;6146058;23;20030;-72
2022/05/07 03:21:20;;;;;;;4.00;3.80;;;;;;;9.15;100.00;101795.91;6140086;23;20025;-74
2022/05/07 03:23:46;;;;;;;5.63;5.43;;;;;;;9.17;100.00;101797.59;6137907;23;20076;-74
2022/05/07 03:26:13;;;;;;;4.50;4.30;;;;;;;9.19;100.00;101798.41;6144209;23;20664;-74
2022/05/07 03:28:40;;;;;;;5.40;5.18;;;;;;;9.21;100.00;101793.13;6133841;23;20084;-73
2022/05/07 03:31:06;;;;;;;5.15;4.90;;;;;;;9.21;100.00;101787.88;6154515;23;20011;-73
2022/05/07 03:33:33;;;;;;;5.30;5.10;;;;;;;9.22;100.00;101792.22;6126946;23;20041;-74
2022/05/07 03:35:59;;;;;;;4.32;4.13;;;;;;;9.21;100.00;101787.03;6154119;23;20479;-74
2022/05/07 03:38:26;;;;;;;4.60;4.28;;;;;;;8.92;100.00;101747.69;6163444;23;20064;-73
2022/05/07 03:40:53;;;;;;;5.00;4.75;;;;;;;8.65;100.00;101699.59;6137012;23;20013;-73
2022/05/07 03:43:19;;;;;;;4.65;4.40;;;;;;;8.96;100.00;101769.38;6142420;23;20013;-75
2022/05/07 03:45:46;;;;;;;5.93;5.57;;;;;;;9.14;100.00;101786.34;6143692;23;20314;-74
2022/05/07 03:48:12;;;;;;;5.00;4.80;;;;;;;8.90;100.00;101746.00;6155258;23;20013;-74
2022/05/07 03:50:39;;;;;;;5.53;5.22;;;;;;;8.80;100.00;101740.19;6117805;23;20114;-75
2022/05/07 03:55:50;;;;;;;4.90;4.65;;;;;;;9.11;100.00;101792.53;6125266;23;20032;-74
2022/05/07 03:58:17;;;;;;;4.50;4.28;;;;;;;9.12;100.00;101790.75;6117168;23;20029;-73
2022/05/07 04:00:44;;;;;;;6.30;6.00;;;;;;;9.13;100.00;101788.09;6127426;23;20021;-72
2022/05/07 04:03:12;;;;;;;4.68;4.47;;;;;;;9.15;100.00;101790.69;6145200;23;20009;-74
2022/05/07 04:05:39;;;;;;;6.18;5.88;;;;;;;9.15;100.00;101799.38;6141975;23;20057;-72
2022/05/07 04:08:06;;;;;;;4.93;4.05;;;;;;;8.81;100.00;101739.28;6140312;23;20021;-73
2022/05/07 04:10:32;;;;;;;5.53;5.32;;;;;;;9.17;100.00;101810.69;6111894;23;20450;-74
2022/05/07 04:12:59;;;;;;;4.00;3.80;;;;;;;9.05;100.00;101768.28;6143852;23;20111;-73
2022/05/07 04:15:25;;;;;;;4.20;4.00;;;;;;;9.31;100.00;101805.03;6166993;23;20017;-73
2022/05/07 04:17:53;;;;;;;5.28;4.97;;;;;;;9.35;100.00;101806.66;6141073;23;20278;-72
2022/05/07 04:20:20;;;;;;;4.93;4.63;;;;;;;9.10;100.00;101745.44;6142923;23;20045;-73
2022/05/07 04:22:46;;;;;;;5.35;5.15;;;;;;;9.54;100.00;101798.25;6139139;23;20005;-74
2022/05/07 04:25:13;;;;;;;5.57;5.22;;;;;;;9.58;100.00;101800.75;6118670;23;20014;-73
2022/05/07 04:27:39;;;;;;;5.90;5.60;;;;;;;9.58;100.00;101782.41;6146710;23;20135;-74
2022/05/07 04:30:06;;;;;;;4.30;4.10;;;;;;;9.72;100.00;101783.72;6123819;23;20482;-75
2022/05/07 04:32:33;;;;;;;5.82;5.53;;;;;;;9.53;99.25;101738.91;6144564;23;20477;-74
2022/05/07 04:35:02;;;;;;;4.57;4.38;;;;;;;10.11;97.86;101804.38;6146861;23;20519;-73
2022/05/07 04:37:28;;;;;;;5.35;5.05;;;;;;;9.85;97.28;101777.22;6134979;23;20041;-71
2022/05/07 04:39:55;;;;;;;4.50;4.20;;;;;;;9.65;98.28;101742.91;6144943;23;20021;-74
2022/05/07 04:42:21;;;;;;;4.50;4.20;;;;;;;9.65;97.45;101732.44;6159077;23;20544;-73
2022/05/07 04:44:48;;;;;;;4.35;4.15;;;;;;;9.90;97.53;101770.06;6149500;23;20029;-73
2022/05/07 04:47:14;;;;;;;4.50;4.25;;;;;;;9.99;96.85;101775.00;6125495;23;20454;-73
2022/05/07 04:49:41;;;;;;;4.82;4.60;;;;;;;9.72;96.62;101720.81;6160110;23;20027;-72
2022/05/07 04:52:07;;;;;;;4.20;4.00;;;;;;;10.40;97.37;101810.44;6127137;23;20025;-74
2022/05/07 04:54:34;;;;;;;5.15;4.95;;;;;;;10.46;95.84;101811.09;6149367;23;20028;-75
2022/05/07 04:57:00;;;;;;;4.72;4.53;;;;;;;10.50;94.88;101822.34;6151255;23;20027;-74
2022/05/07 04:59:27;;;;;;;4.70;4.50;;;;;;;10.16;94.38;101749.97;6151938;23;20170;-73
2022/05/07 05:01:53;;;;;;;4.93;4.60;;;;;;;10.32;93.88;101758.22;6146327;23;20017;-74
2022/05/07 05:04:20;;;;;;;5.05;4.75;;;;;;;10.38;93.18;101744.88;6141315;23;20216;-74
2022/05/07 05:06:47;;;;;;;5.53;5.28;;;;;;;10.28;92.65;101699.69;6133500;23;20058;-73
2022/05/07 05:09:13;;;;;;;4.78;4.57;;;;;;;11.28;91.82;101827.44;6143559;23;20017;-73
2022/05/07 05:11:39;;;;;;;5.25;5.05;;;;;;;11.17;90.95;101783.19;6132826;23;20499;-74
2022/05/07 05:16:52;;;;;;;4.75;4.55;;;;;;;11.39;86.49;101779.75;6136314;23;20583;-74
2022/05/07 05:19:19;;;;;;;4.60;4.40;;;;;;;11.97;85.90;101832.72;6136691;23;20032;-73
2022/05/07 05:21:46;;;;;;;6.05;5.75;;;;;;;12.20;84.95;101840.63;6136499;23;20084;-73
2022/05/07 05:24:12;;;;;;;4.38;4.18;;;;;;;11.74;82.61;101745.97;6131947;23;20036;-74
2022/05/07 05:26:39;;;;;;;6.80;6.32;;;;;;;12.56;82.34;101832.97;6123901;23;20036;-73
2022/05/07 05:29:05;;;;;;;4.80;4.60;;;;;;;11.58;79.99;101657.16;6144045;23;20411;-74
2022/05/07 05:31:32;;;;;;;5.75;5.45;;;;;;;11.46;79.32;101649.78;6137338;23;20536;-73
2022/05/07 05:33:58;;;;;;;5.18;4.88;;;;;;;12.91;78.46;101852.53;6093389;23;20029;-75
2022/05/07 05:36:26;;;;;;;5.35;5.05;;;;;;;12.70;77.33;101812.16;6139365;23;20024;-75
2022/05/07 05:38:53;;;;;;;5.22;4.82;;;;;;;12.99;77.48;101849.56;6122578;23;20114;-74
2022/05/07 05:41:20;;;;;;;5.82;5.43;;;;;;;13.04;77.83;101855.47;6135634;23;20328;-75
2022/05/07 05:43:46;;;;;;;6.55;6.15;;;;;;;12.96;77.22;101860.22;6133329;23;20401;-74
2022/05/07 05:46:16;;;;;;;5.30;5.00;;;;;;;12.85;77.71;101846.66;6118891;23;20021;-74
2022/05/07 05:48:42;;;;;;;6.35;5.80;;;;;;;12.98;78.11;101859.22;6133391;23;20021;-74
2022/05/07 05:51:09;;;;;;;4.80;4.50;;;;;;;13.21;77.65;101851.22;6118889;23;20021;-73
2022/05/07 05:53:35;;;;;;;6.10;5.80;;;;;;;13.36;76.19;101845.31;6133504;23;20327;-74
2022/05/07 05:56:02;;;;;;;4.95;4.72;;;;;;;13.45;75.21;101847.53;6109249;23;20529;-74
2022/05/07 05:58:33;;;;;;;5.10;4.88;;;;;;;12.43;74.91;101674.69;6128822;23;20036;-74
2022/05/07 06:01:00;;;;;;;4.70;4.50;;;;;;;13.67;74.58;101847.41;6140002;23;20125;-74
2022/05/07 06:03:27;;;;;;;5.78;5.38;;;;;;;13.43;73.71;101783.47;6110503;23;20041;-74
2022/05/07 06:05:53;;;;;;;5.18;4.97;;;;;;;13.36;72.55;101758.31;6110618;23;20109;-74
2022/05/07 06:08:20;;;;;;;5.68;5.28;;;;;;;13.45;73.66;101807.09;6097270;23;20083;-74
2022/05/07 06:10:46;;;;;;;5.68;5.43;;;;;;;13.60;74.69;101800.28;6132259;23;20335;-73
2022/05/07 06:13:12;;;;;;;5.85;5.47;;;;;;;13.71;73.46;101798.84;6137833;23;20004;-74
2022/05/07 06:15:39;;;;;;;6.47;6.07;;;;;;;13.58;74.17;101760.78;6130069;23;20036;-75
2022/05/07 06:18:06;;;;;;;5.20;4.90;;;;;;;14.32;72.98;101824.00;6112823;23;20340;-74
2022/05/07 06:20:32;;;;;;;5.80;5.50;;;;;;;14.72;71.85;101844.97;6128723;23;20750;-72
2022/05/07 06:22:59;;;;;;;6.13;5.82;;;;;;;14.54;71.51;101809.72;6124814;23;20076;-72
2022/05/07 06:28:11;;;;;;;5.85;5.40;;;;;;;14.62;72.08;101826.06;6136467;23;20012;-72
2022/05/07 06:30:37;;;;;;;5.72;5.32;;;;;;;14.81;71.38;101814.53;6138394;23;20546;-73
2022/05/07 06:33:04;;;;;;;6.38;5.88;;;;;;;15.26;70.62;101855.38;6131846;23;20027;-72
2022/05/07 06:35:30;;;;;;;8.75;6.72;;;;;;;14.80;72.37;101783.78;6133107;23;20190;-72
2022/05/07 06:37:57;;;;;;;5.75;5.43;;;;;;;15.58;69.94;101855.44;6121558;23;20513;-72
2022/05/07 06:40:23;;;;;;;6.20;5.80;;;;;;;15.82;68.65;101843.50;6107419;23;20092;-74
2022/05/07 06:42:50;;;;;;;6.13;5.72;;;;;;;16.15;68.15;101858.41;6107533;23;20022;-74
2022/05/07 06:45:16;;;;;;;6.18;5.78;;;;;;;16.28;67.29;101863.88;6130448;23;20028;-71
2022/05/07 06:47:43;;;;;;;7.38;6.97;;;;;;;16.09;67.17;101825.19;6125205;23;20033;-71
2022/05/07 06:50:09;;;;;;;5.63;5.40;;;;;;;15.88;67.10;101792.00;6134449;23;20017;-73
2022/05/07 06:52:45;;;;;;;8.45;7.97;;;;;;;15.29;67.05;101635.69;6116503;23;20027;-72
2022/05/07 06:55:13;;;;;;;6.30;6.00;;;;;;;16.55;66.06;101859.59;6133099;23;20293;-74
2022/05/07 06:57:40;;;;;;;8.18;7.78;;;;;;;16.09;66.10;101760.78;6105732;23;20057;-73
2022/05/07 07:00:08;;;;;;;7.25;5.70;;;;;;;16.33;66.34;101792.91;6133357;23;20450;-74
2022/05/07 07:02:34;;;;;;;7.82;7.38;;;;;;;16.62;66.29;101832.72;6126092;23;20013;-72
2022/05/07 07:05:02;;;;;;;6.18;5.65;;;;;;;16.97;65.50;101866.94;6103949;23;20330;-73
2022/05/07 07:07:29;;;;;;;7.13;6.53;;;;;;;16.96;65.34;101887.28;6129943;23;20027;-72
2022/05/07 07:09:56;;;;;;;6.45;6.15;;;;;;;17.19;64.80;101869.97;6128304;23;20033;-72
2022/05/07 07:12:23;;;;;;;7.38;6.45;;;;;;;16.89;63.09;101788.69;6105978;23;20403;-73
2022/05/07 07:15:02;;;;;;;8.45;7.55;;;;;;;17.44;62.48;101863.13;6134794;23;20013;-74
2022/05/07 07:17:30;;;;;;;6.68;6.28;;;;;;;16.49;61.84;101678.94;6104012;23;20032;-72
2022/05/07 07:19:56;;;;;;;7.95;6.28;;;;;;;17.67;61.24;101827.19;6133455;23;20409;-74
2022/05/07 07:22:23;;;;;;;10.23;7.07;;;;;;;17.96;59.54;101859.00;6126532;23;20200;-74
2022/05/07 07:24:49;;;;;;;7.63;7.07;;;;;;;18.08;58.92;101869.69;6102520;23;20487;-73
2022/05/07 07:27:16;;;;;;;7.57;7.15;;;;;;;17.55;60.03;101871.28;6135254;23;20212;-73
2022/05/07 07:29:44;;;;;;;7.90;7.45;;;;;;;17.04;60.60;101736.50;6142635;23;20537;-73
2022/05/07 07:32:10;;;;;;;7.18;6.68;;;;;;;17.78;59.34;101811.41;6132182;23;20019;-72
2022/05/07 07:34:37;;;;;;;7.75;7.25;;;;;;;18.05;59.21;101834.50;6133133;23;20358;-72
2022/05/07 07:37:03;;;;;;;7.10;6.07;;;;;;;17.24;58.03;101723.75;6120475;23;20029;-74
2022/05/07 07:39:32;;;;;;;8.68;8.10;;;;;;;18.33;57.96;101850.31;6100318;23;20336;-72
2022/05/07 07:41:59;;;;;;;7.60;7.10;;;;;;;18.22;58.21;101807.69;6134034;23;20025;-73
2022/05/07 07:44:28;;;;;;;6.47;6.07;;;;;;;18.72;56.94;101853.91;6128711;23;20021;-74
2022/05/07 07:49:39;;;;;;;7.97;7.47;;;;;;;19.12;54.24;101860.97;6132525;23;20107;-72
2022/05/07 07:52:06;;;;;;;6.30;5.90;;;;;;;19.12;55.50;101871.59;6135148;23;20021;-72
2022/05/07 07:54:35;;;;;;;7.40;6.93;;;;;;;19.11;56.97;101872.56;6135153;23;20017;-72
2022/05/07 07:57:02;;;;;;;7.57;6.93;;;;;;;18.99;57.31;101844.16;6129616;23;20072;-73
2022/05/07 07:59:29;;;;;;;6.57;6.18;;;;;;;18.95;56.02;101808.94;6135238;23;20082;-71
2022/05/07 08:01:56;;;;;;;6.60;6.20;;;;;;;19.26;56.10;101841.38;6112939;23;20013;-73
2022/05/07 08:04:25;;;;;;;7.45;6.93;;;;;;;18.99;54.97;101804.25;6134434;23;20028;-72
2022/05/07 08:11:40;;;;;;;6.38;6.07;;;;;;;18.10;54.80;101776.59;6140396;23;20017;-73
2022/05/07 08:12:25;;;;;;;6.43;6.03;;;;;;;18.99;53.65;101807.75;6139737;23;20009;-74
2022/05/07 08:14:51;;;;;;;7.28;6.63;;;;;;;19.05;54.07;101831.28;6131945;23;20092;-72
2022/05/07 08:17:18;;;;;;;6.75;6.25;;;;;;;19.18;55.69;101863.19;6138567;23;20005;-72
2022/05/07 08:19:44;;;;;;;9.68;7.95;;;;;;;18.98;54.85;101859.25;6118621;23;20042;-73
2022/05/07 08:22:11;;;;;;;7.72;6.95;;;;;;;19.27;54.41;101872.34;6141866;23;20471;-72
2022/05/07 08:24:37;;;;;;;7.97;7.20;;;;;;;19.43;54.48;101880.97;6131388;23;20114;-72
2022/05/07 08:27:05;;;;;;;6.88;6.38;;;;;;;19.34;54.94;101849.66;6142729;23;20048;-72
2022/05/07 08:29:31;;;;;;;7.47;6.95;;;;;;;18.39;53.44;101692.25;6133743;23;20032;-73
2022/05/07 08:31:58;;;;;;;7.32;6.82;;;;;;;19.45;54.52;101863.06;6133995;23;20021;-73
2022/05/07 08:34:24;;;;;;;6.70;6.18;;;;;;;19.46;52.85;101829.28;6115477;23;20020;-73
2022/05/07 08:36:51;;;;;;;6.50;6.10;;;;;;;19.99;51.67;101871.69;6119807;23;20033;-74
2022/05/07 08:39:17;;;;;;;6.53;6.13;;;;;;;19.94;51.74;101874.66;6139154;23;20038;-74
2022/05/07 08:41:44;;;;;;;7.95;7.50;;;;;;;20.21;51.85;101850.47;6134476;23;20032;-73
2022/05/07 08:44:10;;;;;;;5.90;5.40;;;;;;;20.35;48.10;101849.44;6111718;23;20009;-73
2022/05/07 08:46:38;;;;;;;7.60;7.03;;;;;;;20.38;47.94;101832.34;6142725;23;20021;-73
2022/05/07 08:49:05;;;;;;;7.82;6.57;;;;;;;20.28;47.61;101818.88;6119980;23;20070;-73
2022/05/07 08:51:33;;;;;;;7.07;6.68;;;;;;;20.36;48.16;101808.47;6137887;23;20048;-75
2022/05/07 08:54:01;;;;;;;6.30;6.00;;;;;;;20.32;49.19;101871.81;6114138;23;20496;-72
2022/05/07 08:56:27;;;;;;;6.43;5.93;;;;;;;19.38;48.28;101706.53;6107128;23;20070;-73
2022/05/07 08:58:55;;;;;;;6.38;6.07;;;;;;;20.39;47.89;101810.06;6097166;23;20099;-72
2022/05/07 09:01:21;;;;;;;6.35;6.00;;;;;;;19.96;48.87;101850.59;6137729;23;20046;-73
2022/05/07 09:03:49;;;;;;;6.15;5.70;;;;;;;19.75;48.50;101703.88;6102713;23;20006;-72
2022/05/07 09:06:22;;;;;;;6.20;5.80;;;;;;;20.60;48.05;101791.59;6140818;23;20104;-73
2022/05/07 09:08:49;;;;;;;5.80;5.50;;;;;;;21.19;45.74;101866.13;6107437;23;20082;-72
2022/05/07 09:11:17;;;;;;;7.55;6.30;;;;;;;20.62;45.94;101730.97;6116983;23;20280;-73
2022/05/07 09:13:43;;;;;;;7.00;6.60;;;;;;;21.32;44.96;101866.00;6119346;23;20024;-73
2022/05/07 09:16:10;;;;;;;9.98;5.82;;;;;;;21.14;43.77;101846.09;6128272;23;20017;-72
2022/05/07 09:18:37;;;;;;;7.53;6.95;;;;;;;21.06;43.89;101804.84;6113609;23;20104;-74
2022/05/07 09:21:19;;;;;;;6.35;6.00;;;;;;;21.26;41.34;101837.13;6133782;23;20015;-74
2022/05/07 09:23:47;;;;;;;6.90;6.50;;;;;;;21.89;42.38;101867.69;6128596;23;20962;-73
2022/05/07 09:26:24;;;;;;;7.07;6.60;;;;;;;21.74;41.69;101852.88;6114520;23;20591;-71
2022/05/07 09:28:50;;;;;;;5.72;5.43;;;;;;;21.96;42.28;101851.13;6131473;23;20270;-73
2022/05/07 09:31:31;;;;;;;6.22;5.93;;;;;;;21.95;40.97;101850.28;6137349;23;20028;-73
2022/05/07 09:36:48;;;;;;;7.57;6.13;;;;;;;22.54;41.52;101850.81;6073463;23;20019;-75
2022/05/07 09:39:14;;;;;;;5.90;5.60;;;;;;;22.70;40.39;101852.03;6087862;23;20529;-71
2022/05/07 09:41:43;;;;;;;8.30;7.65;;;;;;;22.03;41.28;101809.53;6141060;23;20417;-72
2022/05/07 09:44:11;;;;;;;7.47;6.88;;;;;;;21.95;41.76;101852.97;6136135;23;20017;-72
2022/05/07 09:46:39;;;;;;;7.13;6.72;;;;;;;21.20;42.71;101786.88;6105672;23;20044;-72
2022/05/07 09:49:06;;;;;;;6.70;6.10;;;;;;;21.48;42.58;101774.88;6128260;23;20025;-71
2022/05/07 09:51:33;;;;;;;7.68;7.28;;;;;;;21.49;40.45;101789.94;6128742;23;20052;-74
2022/05/07 09:59:32;;;;;;;6.28;5.97;;;;;;;22.49;40.94;101833.31;6103336;23;20038;-75
2022/05/07 10:02:36;;;;;;;6.20;5.85;;;;;;;23.06;41.38;101825.78;6138189;23;20526;-73
2022/05/07 10:05:17;;;;;;;6.53;6.13;;;;;;;22.81;40.60;101831.50;6118645;23;20104;-72
2022/05/07 10:08:02;;;;;;;7.18;6.63;;;;;;;22.86;41.30;101829.31;6117930;23;20001;-72
2022/05/07 10:10:33;;;;;;;6.18;5.88;;;;;;;23.28;40.38;101831.91;6131366;23;20029;-72
2022/05/07 10:13:01;;;;;;;6.32;5.93;;;;;;;23.46;39.91;101818.72;6105139;23;20509;-71
2022/05/07 10:15:28;;;;;;;6.07;5.78;;;;;;;22.00;39.60;101649.44;6112350;23;20364;-73
2022/05/07 10:18:03;;;;;;;6.10;5.75;;;;;;;22.29;40.21;101772.63;6101365;23;20021;-74
2022/05/07 10:20:39;;;;;;;6.80;6.30;;;;;;;22.42;41.59;101832.13;6122809;23;20199;-71
2022/05/07 10:23:10;;;;;;;6.40;5.90;;;;;;;22.64;41.38;101815.09;6112924;23;20035;-72
2022/05/07 10:25:37;;;;;;;7.70;7.30;;;;;;;22.90;40.92;101815.50;6111887;23;20323;-73
2022/05/07 10:28:14;;;;;;;6.65;6.25;;;;;;;23.39;39.51;101822.91;6141557;23;20289;-73
2022/05/07 10:30:58;;;;;;;7.75;7.25;;;;;;;23.34;39.89;101809.94;6111774;23;20027;-72
2022/05/07 10:33:25;;;;;;;6.25;5.85;;;;;;;23.13;39.69;101811.84;6100653;23;20032;-72
2022/05/07 10:35:57;;;;;;;7.53;6.93;;;;;;;23.15;39.77;101783.94;6113199;23;20238;-72
2022/05/07 10:38:23;;;;;;;6.80;6.30;;;;;;;23.49;38.80;101816.63;6139831;23;20037;-73
2022/05/07 10:40:50;;;;;;;6.30;6.00;;;;;;;23.98;37.86;101816.72;6112401;23;20485;-72
2022/05/07 10:43:47;;;;;;;7.25;6.65;;;;;;;23.61;39.22;101809.28;6134375;23;20017;-73
2022/05/07 10:46:16;;;;;;;7.10;6.60;;;;;;;23.59;38.08;101818.47;6049408;23;20600;-71
2022/05/07 10:48:55;;;;;;;6.68;6.28;;;;;;;23.15;39.03;101770.53;6134339;23;20033;-72
2022/05/07 10:51:34;;;;;;;7.15;6.72;;;;;;;23.52;39.52;101815.50;6130060;23;20024;-72
2022/05/07 10:54:19;;;;;;;7.22;6.78;;;;;;;21.82;39.46;101734.69;6128378;23;20040;-73
2022/05/07 10:56:50;;;;;;;8.68;8.05;;;;;;;21.67;42.18;101808.94;6113300;23;20182;-73
2022/05/07 10:59:18;;;;;;;6.63;6.20;;;;;;;22.19;40.63;101814.44;6105281;23;20020;-73
2022/05/07 11:01:45;;;;;;;9.10;8.32;;;;;;;;;;6120655;23;20092;-72
2022/05/07 11:04:13;;;;;;;7.55;6.90;;;;;;;22.87;38.90;101813.13;6114624;23;20513;-73
2022/05/07 11:06:40;;;;;;;7.75;7.25;;;;;;;22.37;38.70;101544.63;6130211;23;20496;-72
2022/05/07 11:09:17;;;;;;;7.07;6.57;;;;;;;23.88;36.38;101775.66;6132478;23;20020;-72
2022/05/07 11:11:49;;;;;;;8.07;7.68;;;;;;;22.77;37.36;101747.13;6098247;23;20459;-73
2022/05/07 11:14:23;;;;;;;7.53;6.80;;;;;;;23.67;35.02;101802.53;6105328;23;20336;-73
2022/05/07 11:16:51;;;;;;;7.78;7.05;;;;;;;22.00;36.81;101644.09;6133373;23;20452;-73
2022/05/07 11:19:28;;;;;;;8.02;7.22;;;;;;;22.63;37.80;101741.16;6130399;23;20024;-73
2022/05/07 11:21:56;;;;;;;6.88;6.40;;;;;;;22.88;36.99;101800.56;6133219;23;20020;-73
2022/05/07 11:24:26;;;;;;;7.22;6.72;;;;;;;22.75;37.22;101799.94;6114187;23;20041;-72
2022/05/07 11:26:57;;;;;;;7.97;7.32;;;;;;;23.24;37.87;101801.03;6136946;23;20042;-72
2022/05/07 11:29:24;;;;;;;6.72;6.13;;;;;;;22.93;36.81;101736.75;6119421;23;20505;-73
2022/05/07 11:31:58;;;;;;;7.82;7.25;;;;;;;23.64;35.93;101798.31;6135870;23;20442;-72
2022/05/07 11:34:33;;;;;;;6.93;6.50;;;;;;;23.13;36.39;101732.34;6135372;23;20521;-72
2022/05/07 11:37:10;;;;;;;7.13;6.63;;;;;;;22.77;36.66;101765.84;6143384;23;20096;-74
2022/05/07 11:39:56;;;;;;;8.15;7.65;;;;;;;22.86;36.89;101810.56;6129516;23;20103;-73
2022/05/07 11:42:38;;;;;;;6.85;6.40;;;;;;;23.46;37.58;101792.78;6128658;23;20051;-74
2022/05/07 11:45:31;;;;;;;6.80;6.35;;;;;;;23.59;38.47;101791.66;6132596;23;20016;-73
2022/05/07 11:47:59;;;;;;;6.30;5.90;;;;;;;23.13;35.26;101756.44;6143335;23;20087;-74
2022/05/07 11:50:33;;;;;;;6.50;6.05;;;;;;;23.32;36.41;101728.03;6126987;23;20033;-73
2022/05/07 11:53:16;;;;;;;7.00;6.47;;;;;;;23.65;35.95;101777.69;6136084;23;20571;-75
2022/05/07 11:55:45;;;;;;;7.97;7.47;;;;;;;23.50;35.88;101788.84;6084944;23;20101;-73
2022/05/07 11:58:16;;;;;;;6.95;6.45;;;;;;;23.57;35.93;101785.59;6136341;23;20382;-72
2022/05/07 12:00:44;;;;;;;9.20;8.48;;;;;;;23.81;35.66;101786.06;6113097;23;20021;-73
2022/05/07 12:03:15;;;;;;;7.28;6.82;;;;;;;23.99;35.43;101737.09;6144608;23;20028;-72
2022/05/07 12:05:47;;;;;;;8.85;8.13;;;;;;;24.48;34.78;101784.34;6107624;23;20033;-73